sensor_id;sensor_type;location;lat;lon;timestamp;temperature;humidity
7002;DHT22;3541;53.230;10.518;2022-07-23T00:00:35;19.00;99.90
7002;DHT22;3541;53.230;10.518;2022-07-23T00:03:02;19.00;99.90
7002;DHT22;3541;53.230;10.518;2022-07-23T00:05:28;19.00;99.90
7002;DHT22;3541;53.230;10.518;2022-07-23T00:07:55;19.00;99.90
7002;DHT22;3541;53.230;10.518;2022-07-23T00:10:22;18.90;99.90
7002;DHT22;3541;53.230;10.518;2022-07-23T00:12:48;18.90;99.90
7002;DHT22;3541;53.230;10.518;2022-07-23T00:15:17;18.80;99.90
7002;DHT22;3541;53.230;10.518;2022-07-23T00:17:43;18.80;99.90
7002;DHT22;3541;53.230;10.518;2022-07-23T00:20:10;18.80;99.90
7002;DHT22;3541;53.230;10.518;2022-07-23T00:22:45;18.80;99.90
7002;DHT22;3541;53.230;10.518;2022-07-23T00:25:12;18.80;99.90
7002;DHT22;3541;53.230;10.518;2022-07-23T00:27:38;18.70;99.90
7002;DHT22;3541;53.230;10.518;2022-07-23T00:30:06;18.70;99.90
7002;DHT22;3541;53.230;10.518;2022-07-23T00:32:45;18.70;99.90
7002;DHT22;3541;53.230;10.518;2022-07-23T00:35:11;18.60;99.90
7002;DHT22;3541;53.230;10.518;2022-07-23T00:37:38;18.60;99.90
7002;DHT22;3541;53.230;10.518;2022-07-23T00:40:06;18.60;99.90
7002;DHT22;3541;53.230;10.518;2022-07-23T00:42:32;18.60;99.90
7002;DHT22;3541;53.230;10.518;2022-07-23T00:44:59;18.50;99.90
7002;DHT22;3541;53.230;10.518;2022-07-23T00:47:26;18.50;99.90
7002;DHT22;3541;53.230;10.518;2022-07-23T00:49:54;18.50;99.90
7002;DHT22;3541;53.230;10.518;2022-07-23T00:52:21;18.50;99.90
7002;DHT22;3541;53.230;10.518;2022-07-23T00:54:48;18.50;99.90
7002;DHT22;3541;53.230;10.518;2022-07-23T00:57:15;18.40;99.90
7002;DHT22;3541;53.230;10.518;2022-07-23T00:59:42;18.40;99.90
7002;DHT22;3541;53.230;10.518;2022-07-23T01:02:08;18.30;99.90
7002;DHT22;3541;53.230;10.518;2022-07-23T01:04:35;18.20;99.90
7002;DHT22;3541;53.230;10.518;2022-07-23T01:07:03;18.20;99.90
7002;DHT22;3541;53.230;10.518;2022-07-23T01:09:30;18.20;99.90
7002;DHT22;3541;53.230;10.518;2022-07-23T01:11:58;18.20;99.90
7002;DHT22;3541;53.230;10.518;2022-07-23T01:14:25;18.10;99.90
7002;DHT22;3541;53.230;10.518;2022-07-23T01:16:52;18.20;99.90
7002;DHT22;3541;53.230;10.518;2022-07-23T01:19:19;18.20;99.90
7002;DHT22;3541;53.230;10.518;2022-07-23T01:21:48;18.20;99.90
7002;DHT22;3541;53.230;10.518;2022-07-23T01:24:17;18.10;99.90
7002;DHT22;3541;53.230;10.518;2022-07-23T01:26:46;18.10;99.90
7002;DHT22;3541;53.230;10.518;2022-07-23T01:29:14;18.00;99.90
7002;DHT22;3541;53.230;10.518;2022-07-23T01:31:41;18.00;99.90
7002;DHT22;3541;53.230;10.518;2022-07-23T01:34:08;18.00;99.90
7002;DHT22;3541;53.230;10.518;2022-07-23T01:36:35;17.90;99.90
7002;DHT22;3541;53.230;10.518;2022-07-23T01:39:04;17.90;99.90
7002;DHT22;3541;53.230;10.518;2022-07-23T01:41:32;17.90;99.90
7002;DHT22;3541;53.230;10.518;2022-07-23T01:43:59;17.80;99.90
7002;DHT22;3541;53.230;10.518;2022-07-23T01:46:26;17.80;99.90
7002;DHT22;3541;53.230;10.518;2022-07-23T01:48:53;17.80;99.90
7002;DHT22;3541;53.230;10.518;2022-07-23T01:51:20;17.80;99.90
7002;DHT22;3541;53.230;10.518;2022-07-23T01:53:47;17.70;99.90
7002;DHT22;3541;53.230;10.518;2022-07-23T01:56:13;17.70;99.90
7002;DHT22;3541;53.230;10.518;2022-07-23T01:58:42;17.70;99.90
7002;DHT22;3541;53.230;10.518;2022-07-23T02:01:08;17.60;99.90
7002;DHT22;3541;53.230;10.518;2022-07-23T02:03:35;17.60;99.90
7002;DHT22;3541;53.230;10.518;2022-07-23T02:06:02;17.60;99.90
7002;DHT22;3541;53.230;10.518;2022-07-23T02:08:29;17.50;99.90
7002;DHT22;3541;53.230;10.518;2022-07-23T02:10:55;17.40;99.90
7002;DHT22;3541;53.230;10.518;2022-07-23T02:13:22;17.40;99.90
7002;DHT22;3541;53.230;10.518;2022-07-23T02:15:50;17.50;99.90
7002;DHT22;3541;53.230;10.518;2022-07-23T02:18:16;17.50;99.90
7002;DHT22;3541;53.230;10.518;2022-07-23T02:20:43;17.50;99.90
7002;DHT22;3541;53.230;10.518;2022-07-23T02:23:10;17.50;99.90
7002;DHT22;3541;53.230;10.518;2022-07-23T02:25:36;17.50;99.90
7002;DHT22;3541;53.230;10.518;2022-07-23T02:28:03;17.40;99.90
7002;DHT22;3541;53.230;10.518;2022-07-23T02:30:30;17.50;99.90
7002;DHT22;3541;53.230;10.518;2022-07-23T02:32:58;17.50;99.90
7002;DHT22;3541;53.230;10.518;2022-07-23T02:35:25;17.40;99.90
7002;DHT22;3541;53.230;10.518;2022-07-23T02:37:52;17.40;99.90
7002;DHT22;3541;53.230;10.518;2022-07-23T02:40:18;17.40;99.90
7002;DHT22;3541;53.230;10.518;2022-07-23T02:42:45;17.40;99.90
7002;DHT22;3541;53.230;10.518;2022-07-23T02:45:12;17.40;99.90
7002;DHT22;3541;53.230;10.518;2022-07-23T02:47:39;17.30;99.90
7002;DHT22;3541;53.230;10.518;2022-07-23T02:50:08;17.30;99.90
7002;DHT22;3541;53.230;10.518;2022-07-23T02:52:35;17.30;99.90
7002;DHT22;3541;53.230;10.518;2022-07-23T02:55:02;17.30;99.90
7002;DHT22;3541;53.230;10.518;2022-07-23T02:57:28;17.30;99.90
7002;DHT22;3541;53.230;10.518;2022-07-23T02:59:55;17.30;99.90
7002;DHT22;3541;53.230;10.518;2022-07-23T03:02:22;17.10;99.90
7002;DHT22;3541;53.230;10.518;2022-07-23T03:04:48;17.10;99.90
7002;DHT22;3541;53.230;10.518;2022-07-23T03:07:16;17.10;99.90
7002;DHT22;3541;53.230;10.518;2022-07-23T03:09:43;17.10;99.90
7002;DHT22;3541;53.230;10.518;2022-07-23T03:12:10;17.10;99.90
7002;DHT22;3541;53.230;10.518;2022-07-23T03:14:36;17.10;99.90
7002;DHT22;3541;53.230;10.518;2022-07-23T03:17:03;17.10;99.90
7002;DHT22;3541;53.230;10.518;2022-07-23T03:19:30;17.10;99.90
7002;DHT22;3541;53.230;10.518;2022-07-23T03:21:56;17.00;99.90
7002;DHT22;3541;53.230;10.518;2022-07-23T03:24:24;17.00;99.90
7002;DHT22;3541;53.230;10.518;2022-07-23T03:27:11;17.00;99.90
7002;DHT22;3541;53.230;10.518;2022-07-23T03:29:38;16.90;99.90
7002;DHT22;3541;53.230;10.518;2022-07-23T03:32:05;17.00;99.90
7002;DHT22;3541;53.230;10.518;2022-07-23T03:34:32;17.00;99.90
7002;DHT22;3541;53.230;10.518;2022-07-23T03:36:58;16.90;99.90
7002;DHT22;3541;53.230;10.518;2022-07-23T03:39:26;16.80;99.90
7002;DHT22;3541;53.230;10.518;2022-07-23T03:41:53;16.80;99.90
7002;DHT22;3541;53.230;10.518;2022-07-23T03:44:19;16.70;99.90
7002;DHT22;3541;53.230;10.518;2022-07-23T03:46:46;16.70;99.90
7002;DHT22;3541;53.230;10.518;2022-07-23T03:49:12;16.60;99.90
7002;DHT22;3541;53.230;10.518;2022-07-23T03:51:39;16.60;99.90
7002;DHT22;3541;53.230;10.518;2022-07-23T03:54:06;16.60;99.90
7002;DHT22;3541;53.230;10.518;2022-07-23T03:56:34;16.60;99.90
7002;DHT22;3541;53.230;10.518;2022-07-23T03:59:00;16.60;99.90
7002;DHT22;3541;53.230;10.518;2022-07-23T04:01:27;16.70;99.90
7002;DHT22;3541;53.230;10.518;2022-07-23T04:03:53;16.70;99.90
7002;DHT22;3541;53.230;10.518;2022-07-23T04:06:20;16.60;99.90
7002;DHT22;3541;53.230;10.518;2022-07-23T04:08:47;16.60;99.90
7002;DHT22;3541;53.230;10.518;2022-07-23T04:11:13;16.70;99.90
7002;DHT22;3541;53.230;10.518;2022-07-23T04:13:41;16.70;99.90
7002;DHT22;3541;53.230;10.518;2022-07-23T04:16:08;16.70;99.90
7002;DHT22;3541;53.230;10.518;2022-07-23T04:18:34;16.80;99.90
7002;DHT22;3541;53.230;10.518;2022-07-23T04:21:01;16.70;99.90
7002;DHT22;3541;53.230;10.518;2022-07-23T04:23:28;16.70;99.90
7002;DHT22;3541;53.230;10.518;2022-07-23T04:25:54;16.70;99.90
7002;DHT22;3541;53.230;10.518;2022-07-23T04:28:21;16.80;99.90
7002;DHT22;3541;53.230;10.518;2022-07-23T04:30:49;16.80;99.90
7002;DHT22;3541;53.230;10.518;2022-07-23T04:33:16;16.80;99.90
7002;DHT22;3541;53.230;10.518;2022-07-23T04:35:43;16.70;99.90
7002;DHT22;3541;53.230;10.518;2022-07-23T04:38:09;16.70;99.90
7002;DHT22;3541;53.230;10.518;2022-07-23T04:40:36;16.80;99.90
7002;DHT22;3541;53.230;10.518;2022-07-23T04:43:02;16.80;99.90
7002;DHT22;3541;53.230;10.518;2022-07-23T04:45:30;16.80;99.90
7002;DHT22;3541;53.230;10.518;2022-07-23T04:47:58;16.80;99.90
7002;DHT22;3541;53.230;10.518;2022-07-23T04:50:24;16.80;99.90
7002;DHT22;3541;53.230;10.518;2022-07-23T04:52:51;16.80;99.90
7002;DHT22;3541;53.230;10.518;2022-07-23T04:55:18;16.80;99.90
7002;DHT22;3541;53.230;10.518;2022-07-23T04:57:45;16.80;99.90
7002;DHT22;3541;53.230;10.518;2022-07-23T05:00:12;16.70;99.90
7002;DHT22;3541;53.230;10.518;2022-07-23T05:02:39;16.70;99.90
7002;DHT22;3541;53.230;10.518;2022-07-23T05:05:07;16.70;99.90
7002;DHT22;3541;53.230;10.518;2022-07-23T05:07:34;16.80;99.90
7002;DHT22;3541;53.230;10.518;2022-07-23T05:10:00;16.70;99.90
7002;DHT22;3541;53.230;10.518;2022-07-23T05:12:27;16.60;99.90
7002;DHT22;3541;53.230;10.518;2022-07-23T05:14:53;16.60;99.90
7002;DHT22;3541;53.230;10.518;2022-07-23T05:17:20;16.70;99.90
7002;DHT22;3541;53.230;10.518;2022-07-23T05:19:46;16.70;99.90
7002;DHT22;3541;53.230;10.518;2022-07-23T05:22:14;16.70;99.90
7002;DHT22;3541;53.230;10.518;2022-07-23T05:24:41;16.70;99.90
7002;DHT22;3541;53.230;10.518;2022-07-23T05:27:08;16.80;99.90
7002;DHT22;3541;53.230;10.518;2022-07-23T05:29:35;16.80;99.90
7002;DHT22;3541;53.230;10.518;2022-07-23T05:32:01;16.80;99.90
7002;DHT22;3541;53.230;10.518;2022-07-23T05:34:28;16.70;99.90
7002;DHT22;3541;53.230;10.518;2022-07-23T05:36:54;16.70;99.90
7002;DHT22;3541;53.230;10.518;2022-07-23T05:39:23;16.70;99.90
7002;DHT22;3541;53.230;10.518;2022-07-23T05:41:49;16.70;99.90
7002;DHT22;3541;53.230;10.518;2022-07-23T05:44:16;16.60;99.90
7002;DHT22;3541;53.230;10.518;2022-07-23T05:46:43;16.70;99.90
7002;DHT22;3541;53.230;10.518;2022-07-23T05:49:09;16.70;99.90
7002;DHT22;3541;53.230;10.518;2022-07-23T05:51:36;16.80;99.90
7002;DHT22;3541;53.230;10.518;2022-07-23T05:54:03;16.80;99.90
7002;DHT22;3541;53.230;10.518;2022-07-23T05:56:30;16.70;99.90
7002;DHT22;3541;53.230;10.518;2022-07-23T05:58:57;16.70;99.90
7002;DHT22;3541;53.230;10.518;2022-07-23T06:01:24;16.70;99.90
7002;DHT22;3541;53.230;10.518;2022-07-23T06:03:51;16.70;99.90
7002;DHT22;3541;53.230;10.518;2022-07-23T06:06:17;16.70;99.90
7002;DHT22;3541;53.230;10.518;2022-07-23T06:08:44;16.60;99.90
7002;DHT22;3541;53.230;10.518;2022-07-23T06:11:10;16.60;99.90
7002;DHT22;3541;53.230;10.518;2022-07-23T06:13:38;16.70;99.90
7002;DHT22;3541;53.230;10.518;2022-07-23T06:16:05;16.50;99.90
7002;DHT22;3541;53.230;10.518;2022-07-23T06:18:31;16.50;99.90
7002;DHT22;3541;53.230;10.518;2022-07-23T06:20:58;16.60;99.90
7002;DHT22;3541;53.230;10.518;2022-07-23T06:23:25;16.50;99.90
7002;DHT22;3541;53.230;10.518;2022-07-23T06:25:51;16.40;99.90
7002;DHT22;3541;53.230;10.518;2022-07-23T06:28:18;16.50;99.90
7002;DHT22;3541;53.230;10.518;2022-07-23T06:30:46;16.60;99.90
7002;DHT22;3541;53.230;10.518;2022-07-23T06:33:13;16.70;99.90
7002;DHT22;3541;53.230;10.518;2022-07-23T06:35:40;16.70;99.90
7002;DHT22;3541;53.230;10.518;2022-07-23T06:38:07;16.80;99.90
7002;DHT22;3541;53.230;10.518;2022-07-23T06:40:34;16.80;99.90
7002;DHT22;3541;53.230;10.518;2022-07-23T06:43:00;16.80;99.90
7002;DHT22;3541;53.230;10.518;2022-07-23T06:45:27;16.80;99.90
7002;DHT22;3541;53.230;10.518;2022-07-23T06:47:55;16.80;99.90
7002;DHT22;3541;53.230;10.518;2022-07-23T06:50:22;16.90;99.90
7002;DHT22;3541;53.230;10.518;2022-07-23T06:52:49;17.00;99.90
7002;DHT22;3541;53.230;10.518;2022-07-23T06:55:15;17.10;99.90
7002;DHT22;3541;53.230;10.518;2022-07-23T06:57:42;17.20;99.90
7002;DHT22;3541;53.230;10.518;2022-07-23T07:00:10;17.10;99.90
7002;DHT22;3541;53.230;10.518;2022-07-23T07:02:36;17.10;99.90
7002;DHT22;3541;53.230;10.518;2022-07-23T07:05:05;17.20;99.90
7002;DHT22;3541;53.230;10.518;2022-07-23T07:07:31;17.30;99.90
7002;DHT22;3541;53.230;10.518;2022-07-23T07:09:58;17.30;99.90
7002;DHT22;3541;53.230;10.518;2022-07-23T07:12:25;17.30;99.90
7002;DHT22;3541;53.230;10.518;2022-07-23T07:14:51;17.40;99.90
7002;DHT22;3541;53.230;10.518;2022-07-23T07:17:18;17.40;99.90
7002;DHT22;3541;53.230;10.518;2022-07-23T07:19:45;17.40;99.90
7002;DHT22;3541;53.230;10.518;2022-07-23T07:22:13;17.40;99.90
7002;DHT22;3541;53.230;10.518;2022-07-23T07:24:39;17.60;99.90
7002;DHT22;3541;53.230;10.518;2022-07-23T07:27:06;17.70;99.90
7002;DHT22;3541;53.230;10.518;2022-07-23T07:29:33;17.60;99.90
7002;DHT22;3541;53.230;10.518;2022-07-23T07:31:59;17.50;99.90
7002;DHT22;3541;53.230;10.518;2022-07-23T07:34:26;17.40;99.90
7002;DHT22;3541;53.230;10.518;2022-07-23T07:36:52;17.40;99.90
7002;DHT22;3541;53.230;10.518;2022-07-23T07:39:20;17.40;99.90
7002;DHT22;3541;53.230;10.518;2022-07-23T07:41:47;17.60;99.90
7002;DHT22;3541;53.230;10.518;2022-07-23T07:44:14;17.70;99.90
7002;DHT22;3541;53.230;10.518;2022-07-23T07:46:41;17.70;99.90
7002;DHT22;3541;53.230;10.518;2022-07-23T07:49:08;17.70;99.90
7002;DHT22;3541;53.230;10.518;2022-07-23T07:51:35;17.80;99.90
7002;DHT22;3541;53.230;10.518;2022-07-23T07:54:01;18.00;99.90
7002;DHT22;3541;53.230;10.518;2022-07-23T07:56:29;18.20;99.90
7002;DHT22;3541;53.230;10.518;2022-07-23T07:58:56;18.10;99.90
7002;DHT22;3541;53.230;10.518;2022-07-23T08:01:22;18.00;99.90
7002;DHT22;3541;53.230;10.518;2022-07-23T08:03:49;18.10;99.90
7002;DHT22;3541;53.230;10.518;2022-07-23T08:06:15;18.00;99.90
7002;DHT22;3541;53.230;10.518;2022-07-23T08:08:42;18.00;99.90
7002;DHT22;3541;53.230;10.518;2022-07-23T08:11:08;18.10;99.90
7002;DHT22;3541;53.230;10.518;2022-07-23T08:13:36;18.30;99.90
7002;DHT22;3541;53.230;10.518;2022-07-23T08:16:03;18.40;99.90
7002;DHT22;3541;53.230;10.518;2022-07-23T08:18:30;18.30;99.90
7002;DHT22;3541;53.230;10.518;2022-07-23T08:20:57;18.30;99.90
7002;DHT22;3541;53.230;10.518;2022-07-23T08:23:23;18.40;99.90
7002;DHT22;3541;53.230;10.518;2022-07-23T08:25:50;18.40;99.90
7002;DHT22;3541;53.230;10.518;2022-07-23T08:28:16;18.40;99.90
7002;DHT22;3541;53.230;10.518;2022-07-23T08:30:45;18.40;99.90
7002;DHT22;3541;53.230;10.518;2022-07-23T08:33:13;18.30;99.90
7002;DHT22;3541;53.230;10.518;2022-07-23T08:35:41;18.30;99.90
7002;DHT22;3541;53.230;10.518;2022-07-23T08:38:10;18.40;99.90
7002;DHT22;3541;53.230;10.518;2022-07-23T08:40:39;18.60;99.90
7002;DHT22;3541;53.230;10.518;2022-07-23T08:43:08;18.70;99.90
7002;DHT22;3541;53.230;10.518;2022-07-23T08:45:36;18.60;99.90
7002;DHT22;3541;53.230;10.518;2022-07-23T08:48:08;18.60;99.90
7002;DHT22;3541;53.230;10.518;2022-07-23T08:50:35;18.70;99.90
7002;DHT22;3541;53.230;10.518;2022-07-23T08:53:05;18.90;99.90
7002;DHT22;3541;53.230;10.518;2022-07-23T08:55:32;19.00;99.90
7002;DHT22;3541;53.230;10.518;2022-07-23T08:57:59;19.00;99.90
7002;DHT22;3541;53.230;10.518;2022-07-23T09:00:26;19.00;99.90
7002;DHT22;3541;53.230;10.518;2022-07-23T09:02:52;19.00;99.90
7002;DHT22;3541;53.230;10.518;2022-07-23T09:05:20;19.00;99.90
7002;DHT22;3541;53.230;10.518;2022-07-23T09:08:08;18.80;99.90
7002;DHT22;3541;53.230;10.518;2022-07-23T09:10:52;18.90;99.90
7002;DHT22;3541;53.230;10.518;2022-07-23T09:13:35;19.00;99.90
7002;DHT22;3541;53.230;10.518;2022-07-23T09:16:06;19.10;99.90
7002;DHT22;3541;53.230;10.518;2022-07-23T09:18:42;19.20;99.90
7002;DHT22;3541;53.230;10.518;2022-07-23T09:21:17;19.10;99.90
7002;DHT22;3541;53.230;10.518;2022-07-23T09:23:45;19.10;99.90
7002;DHT22;3541;53.230;10.518;2022-07-23T09:26:21;19.10;99.90
7002;DHT22;3541;53.230;10.518;2022-07-23T09:28:51;19.00;99.90
7002;DHT22;3541;53.230;10.518;2022-07-23T09:31:18;19.00;99.90
7002;DHT22;3541;53.230;10.518;2022-07-23T09:33:45;18.90;99.90
7002;DHT22;3541;53.230;10.518;2022-07-23T09:36:13;18.90;99.90
7002;DHT22;3541;53.230;10.518;2022-07-23T09:38:48;18.90;99.90
7002;DHT22;3541;53.230;10.518;2022-07-23T09:41:15;19.00;99.90
7002;DHT22;3541;53.230;10.518;2022-07-23T09:43:42;19.30;99.90
7002;DHT22;3541;53.230;10.518;2022-07-23T09:46:19;19.40;99.90
7002;DHT22;3541;53.230;10.518;2022-07-23T09:48:46;19.40;99.90
7002;DHT22;3541;53.230;10.518;2022-07-23T09:51:14;19.30;99.90
7002;DHT22;3541;53.230;10.518;2022-07-23T09:53:42;19.50;99.90
7002;DHT22;3541;53.230;10.518;2022-07-23T09:56:09;19.50;99.90
7002;DHT22;3541;53.230;10.518;2022-07-23T09:58:40;19.50;99.90
7002;DHT22;3541;53.230;10.518;2022-07-23T10:01:12;19.40;99.90
7002;DHT22;3541;53.230;10.518;2022-07-23T10:03:40;19.30;99.90
7002;DHT22;3541;53.230;10.518;2022-07-23T10:06:08;19.30;99.90
7002;DHT22;3541;53.230;10.518;2022-07-23T10:08:40;19.20;99.90
7002;DHT22;3541;53.230;10.518;2022-07-23T10:11:08;19.00;99.90
7002;DHT22;3541;53.230;10.518;2022-07-23T10:13:36;19.10;99.90
7002;DHT22;3541;53.230;10.518;2022-07-23T10:16:22;19.30;99.90
7002;DHT22;3541;53.230;10.518;2022-07-23T10:18:49;19.30;99.90
7002;DHT22;3541;53.230;10.518;2022-07-23T10:21:28;19.30;99.90
7002;DHT22;3541;53.230;10.518;2022-07-23T10:24:08;19.30;99.90
7002;DHT22;3541;53.230;10.518;2022-07-23T10:26:41;19.40;99.90
7002;DHT22;3541;53.230;10.518;2022-07-23T10:29:20;19.40;99.90
7002;DHT22;3541;53.230;10.518;2022-07-23T10:31:54;19.50;99.90
7002;DHT22;3541;53.230;10.518;2022-07-23T10:34:28;19.60;99.90
7002;DHT22;3541;53.230;10.518;2022-07-23T10:37:03;19.50;99.90
7002;DHT22;3541;53.230;10.518;2022-07-23T10:39:34;19.40;99.90
7002;DHT22;3541;53.230;10.518;2022-07-23T10:42:11;19.50;99.90
7002;DHT22;3541;53.230;10.518;2022-07-23T10:44:39;19.50;99.90
7002;DHT22;3541;53.230;10.518;2022-07-23T10:47:08;19.60;99.90
7002;DHT22;3541;53.230;10.518;2022-07-23T10:49:45;19.60;99.90
7002;DHT22;3541;53.230;10.518;2022-07-23T10:52:20;19.80;99.90
7002;DHT22;3541;53.230;10.518;2022-07-23T10:54:49;19.90;99.90
7002;DHT22;3541;53.230;10.518;2022-07-23T10:57:18;19.90;99.90
7002;DHT22;3541;53.230;10.518;2022-07-23T11:00:11;19.80;99.90
7002;DHT22;3541;53.230;10.518;2022-07-23T11:02:39;19.80;99.90
7002;DHT22;3541;53.230;10.518;2022-07-23T11:05:07;19.80;99.90
7002;DHT22;3541;53.230;10.518;2022-07-23T11:07:35;19.80;99.90
7002;DHT22;3541;53.230;10.518;2022-07-23T11:10:04;20.00;99.90
7002;DHT22;3541;53.230;10.518;2022-07-23T11:12:36;20.20;99.90
7002;DHT22;3541;53.230;10.518;2022-07-23T11:15:05;20.40;99.90
7002;DHT22;3541;53.230;10.518;2022-07-23T11:17:35;20.50;99.90
7002;DHT22;3541;53.230;10.518;2022-07-23T11:20:21;20.50;99.90
7002;DHT22;3541;53.230;10.518;2022-07-23T11:22:51;20.40;99.90
7002;DHT22;3541;53.230;10.518;2022-07-23T11:25:35;20.20;99.90
7002;DHT22;3541;53.230;10.518;2022-07-23T11:28:14;20.10;99.90
7002;DHT22;3541;53.230;10.518;2022-07-23T11:30:43;20.10;99.90
7002;DHT22;3541;53.230;10.518;2022-07-23T11:33:18;20.10;99.90
7002;DHT22;3541;53.230;10.518;2022-07-23T11:35:47;20.10;99.90
7002;DHT22;3541;53.230;10.518;2022-07-23T11:38:16;20.40;99.90
7002;DHT22;3541;53.230;10.518;2022-07-23T11:40:46;20.60;99.90
7002;DHT22;3541;53.230;10.518;2022-07-23T11:43:13;20.40;99.90
7002;DHT22;3541;53.230;10.518;2022-07-23T11:45:43;20.40;99.90
7002;DHT22;3541;53.230;10.518;2022-07-23T11:48:16;20.30;99.90
7002;DHT22;3541;53.230;10.518;2022-07-23T11:50:43;20.20;99.90
7002;DHT22;3541;53.230;10.518;2022-07-23T11:53:10;20.20;99.90
7002;DHT22;3541;53.230;10.518;2022-07-23T11:55:37;20.50;99.90
7002;DHT22;3541;53.230;10.518;2022-07-23T11:58:05;20.60;99.90
7002;DHT22;3541;53.230;10.518;2022-07-23T12:00:32;20.70;99.90
7002;DHT22;3541;53.230;10.518;2022-07-23T12:03:01;20.60;99.90
7002;DHT22;3541;53.230;10.518;2022-07-23T12:05:31;20.60;99.90
7002;DHT22;3541;53.230;10.518;2022-07-23T12:07:59;20.50;99.90
7002;DHT22;3541;53.230;10.518;2022-07-23T12:10:28;20.60;99.90
7002;DHT22;3541;53.230;10.518;2022-07-23T12:12:56;20.50;99.90
7002;DHT22;3541;53.230;10.518;2022-07-23T12:15:26;20.60;99.90
7002;DHT22;3541;53.230;10.518;2022-07-23T12:17:54;20.60;99.90
7002;DHT22;3541;53.230;10.518;2022-07-23T12:20:23;20.60;99.90
7002;DHT22;3541;53.230;10.518;2022-07-23T12:22:52;20.40;99.90
7002;DHT22;3541;53.230;10.518;2022-07-23T12:25:20;20.20;99.90
7002;DHT22;3541;53.230;10.518;2022-07-23T12:27:59;20.20;99.90
7002;DHT22;3541;53.230;10.518;2022-07-23T12:30:28;20.10;99.90
7002;DHT22;3541;53.230;10.518;2022-07-23T12:32:57;20.10;99.90
7002;DHT22;3541;53.230;10.518;2022-07-23T12:35:31;20.20;99.90
7002;DHT22;3541;53.230;10.518;2022-07-23T12:38:00;20.60;99.90
7002;DHT22;3541;53.230;10.518;2022-07-23T12:40:29;20.90;99.90
7002;DHT22;3541;53.230;10.518;2022-07-23T12:42:57;21.00;99.90
7002;DHT22;3541;53.230;10.518;2022-07-23T12:45:25;20.90;99.90
7002;DHT22;3541;53.230;10.518;2022-07-23T12:48:01;20.80;99.90
7002;DHT22;3541;53.230;10.518;2022-07-23T12:50:40;20.80;99.90
7002;DHT22;3541;53.230;10.518;2022-07-23T12:53:13;20.60;99.90
7002;DHT22;3541;53.230;10.518;2022-07-23T12:55:41;20.60;99.90
7002;DHT22;3541;53.230;10.518;2022-07-23T12:58:10;20.80;99.90
7002;DHT22;3541;53.230;10.518;2022-07-23T13:00:52;20.70;99.90
7002;DHT22;3541;53.230;10.518;2022-07-23T13:03:26;20.70;99.90
7002;DHT22;3541;53.230;10.518;2022-07-23T13:05:53;20.80;99.90
7002;DHT22;3541;53.230;10.518;2022-07-23T13:08:20;20.60;99.90
7002;DHT22;3541;53.230;10.518;2022-07-23T13:10:47;20.70;99.90
7002;DHT22;3541;53.230;10.518;2022-07-23T13:13:17;20.80;99.90
7002;DHT22;3541;53.230;10.518;2022-07-23T13:15:44;21.00;99.90
7002;DHT22;3541;53.230;10.518;2022-07-23T13:18:10;21.10;99.90
7002;DHT22;3541;53.230;10.518;2022-07-23T13:20:38;20.80;99.90
7002;DHT22;3541;53.230;10.518;2022-07-23T13:23:05;20.90;99.90
7002;DHT22;3541;53.230;10.518;2022-07-23T13:25:32;21.00;99.90
7002;DHT22;3541;53.230;10.518;2022-07-23T13:27:59;20.90;99.90
7002;DHT22;3541;53.230;10.518;2022-07-23T13:30:26;20.90;99.90
7002;DHT22;3541;53.230;10.518;2022-07-23T13:32:52;20.80;99.90
7002;DHT22;3541;53.230;10.518;2022-07-23T13:35:19;20.60;99.90
7002;DHT22;3541;53.230;10.518;2022-07-23T13:37:47;20.60;99.90
7002;DHT22;3541;53.230;10.518;2022-07-23T13:40:14;20.70;99.90
7002;DHT22;3541;53.230;10.518;2022-07-23T13:42:40;20.90;99.90
7002;DHT22;3541;53.230;10.518;2022-07-23T13:45:07;21.10;99.90
7002;DHT22;3541;53.230;10.518;2022-07-23T13:47:34;21.30;99.90
7002;DHT22;3541;53.230;10.518;2022-07-23T13:50:00;21.30;99.90
7002;DHT22;3541;53.230;10.518;2022-07-23T13:52:27;21.50;99.90
7002;DHT22;3541;53.230;10.518;2022-07-23T13:54:55;21.50;99.90
7002;DHT22;3541;53.230;10.518;2022-07-23T13:57:22;21.40;99.90
7002;DHT22;3541;53.230;10.518;2022-07-23T13:59:49;21.20;99.90
7002;DHT22;3541;53.230;10.518;2022-07-23T14:02:16;21.10;99.90
7002;DHT22;3541;53.230;10.518;2022-07-23T14:04:44;21.10;99.90
7002;DHT22;3541;53.230;10.518;2022-07-23T14:07:11;21.00;99.90
7002;DHT22;3541;53.230;10.518;2022-07-23T14:09:37;20.90;99.90
7002;DHT22;3541;53.230;10.518;2022-07-23T14:12:06;20.90;99.90
7002;DHT22;3541;53.230;10.518;2022-07-23T14:14:33;21.00;99.90
7002;DHT22;3541;53.230;10.518;2022-07-23T14:17:00;21.10;99.90
7002;DHT22;3541;53.230;10.518;2022-07-23T14:19:26;21.10;99.90
7002;DHT22;3541;53.230;10.518;2022-07-23T14:21:53;21.00;99.90
7002;DHT22;3541;53.230;10.518;2022-07-23T14:24:19;21.00;99.90
7002;DHT22;3541;53.230;10.518;2022-07-23T14:26:46;21.10;99.90
7002;DHT22;3541;53.230;10.518;2022-07-23T14:29:14;21.40;99.90
7002;DHT22;3541;53.230;10.518;2022-07-23T14:31:41;21.60;99.90
7002;DHT22;3541;53.230;10.518;2022-07-23T14:34:07;21.50;99.90
7002;DHT22;3541;53.230;10.518;2022-07-23T14:36:34;21.40;99.90
7002;DHT22;3541;53.230;10.518;2022-07-23T14:39:00;21.20;99.90
7002;DHT22;3541;53.230;10.518;2022-07-23T14:41:27;21.10;99.90
7002;DHT22;3541;53.230;10.518;2022-07-23T14:43:53;21.00;99.90
7002;DHT22;3541;53.230;10.518;2022-07-23T14:46:22;20.90;99.90
7002;DHT22;3541;53.230;10.518;2022-07-23T14:48:49;21.00;99.90
7002;DHT22;3541;53.230;10.518;2022-07-23T14:51:16;21.00;99.90
7002;DHT22;3541;53.230;10.518;2022-07-23T14:53:42;21.10;99.90
7002;DHT22;3541;53.230;10.518;2022-07-23T14:56:09;21.20;99.90
7002;DHT22;3541;53.230;10.518;2022-07-23T14:58:35;21.60;99.90
7002;DHT22;3541;53.230;10.518;2022-07-23T15:01:02;21.50;99.90
7002;DHT22;3541;53.230;10.518;2022-07-23T15:03:30;21.40;99.90
7002;DHT22;3541;53.230;10.518;2022-07-23T15:05:56;21.30;99.90
7002;DHT22;3541;53.230;10.518;2022-07-23T15:08:23;21.30;99.90
7002;DHT22;3541;53.230;10.518;2022-07-23T15:10:50;21.40;99.90
7002;DHT22;3541;53.230;10.518;2022-07-23T15:13:17;21.30;99.90
7002;DHT22;3541;53.230;10.518;2022-07-23T15:15:44;21.20;99.90
7002;DHT22;3541;53.230;10.518;2022-07-23T15:18:11;21.30;99.90
7002;DHT22;3541;53.230;10.518;2022-07-23T15:20:39;21.60;99.90
7002;DHT22;3541;53.230;10.518;2022-07-23T15:23:07;21.60;99.90
7002;DHT22;3541;53.230;10.518;2022-07-23T15:25:34;21.50;99.90
7002;DHT22;3541;53.230;10.518;2022-07-23T15:28:01;21.30;99.90
7002;DHT22;3541;53.230;10.518;2022-07-23T15:30:29;21.20;99.90
7002;DHT22;3541;53.230;10.518;2022-07-23T15:32:56;20.80;99.90
7002;DHT22;3541;53.230;10.518;2022-07-23T15:35:23;20.80;99.90
7002;DHT22;3541;53.230;10.518;2022-07-23T15:37:51;20.80;99.90
7002;DHT22;3541;53.230;10.518;2022-07-23T15:40:17;21.00;99.90
7002;DHT22;3541;53.230;10.518;2022-07-23T15:42:44;21.30;99.90
7002;DHT22;3541;53.230;10.518;2022-07-23T15:45:11;21.30;99.90
7002;DHT22;3541;53.230;10.518;2022-07-23T15:47:38;21.20;99.90
7002;DHT22;3541;53.230;10.518;2022-07-23T15:50:06;21.30;99.90